メインページ
METAR-TAF:

METAR-TAF

空港 :

リスボン, ポルトガル

ウンベルト・デルガード空港

緯度: 38-46N, 経度: 009-08W, 海抜: 114m

現時点の気象観測

当レポートは18分前の09:30(UTC)に作成
南/南西の風 8kt、から西/南西の間で変化する
気温 11°C
湿度 82%
気圧 1010 hPa
視程10km以上
高度1400ftの雲は散在している

METAR: LPPT 250930Z 21008KT 180V240 9999 SCT014 11/08 Q1010

時間: 09:48 (09:48 UTC)

予報

当レポートは4時間48分前の05:00(UTC)に作成
予報は25日の 06時(UTC)から 26日の 12時(UTC)まで有効
変向風 3kt
視程10km以上
高度400ftの雲はほとんどない
25日の 06時(UTC)から 25日の 09時(UTC)まで徐々に
南西の風 12kt
高度3000ftの雲は散在している
25日の 06時(UTC)から 26日の 06時(UTC)まで一時的に
視程: 8000m
高度1500ftの千切れ雲あり
高度2500ftの雲はほとんどない, 積乱雲.
にわか雨
確率 30% :
25日の 08時(UTC)から 25日の 18時(UTC)まで一時的に
変向風 15kt、最大30ktの突風を伴う
視程: 3000m
高度1200ftの千切れ雲あり
高度2000ftの雲は散在している, 積乱雲.
激しい雷雨, 雨, 氷霰/雪霰
26日の 06時(UTC)から 26日の 09時(UTC)まで徐々に
南/南東の風 10kt
高度2000ftの千切れ雲あり

TAF: LPPT 250500Z 2506/2612 VRB03KT 9999 FEW004 BECMG 2506/2509 23012KT SCT030 TEMPO 2506/2606 8000 SHRA BKN015 FEW025CB PROB30 TEMPO 2508/2518 VRB15G30KT 3000 TSRAGS BKN012 SCT020CB BECMG 2606/2609 16010KT BKN020

4,000以上の空港の気象観測と天気予報(METAR報とTAF報)

利用可能な観測所は地図上に黄色い丸と赤い丸で示す。

丸の上にカーソルを重ねると観測所名を参照できる。

次にクリックすると気象観測と天気予報を参照できる。

マップの切り替え:黒色「×」印の緑ボタンをクリックして拡大、「-」印の緑ボタンをクリックして縮小、緑色の三角印をクリックして隣りの地図に切り替え


METAR-TAF: